Time;durP1;ratioP1;P1;durP2;ratioP2;P2;SDS_P1;SDS_P2;PMS_P1;PMS_P2;Temp;Humidity;BMP_temperature;BMP_pressure;BME280_temperature;BME280_humidity;BME280_pressure;Samples;Min_cycle;Max_cycle;Signal;HPM_P1;HPM_P2
2022/10/19 00:00:25;;;;;;;5.82;2.53;;;;;;;9.15;71.79;102789.00;4881431;29;20084;-95
2022/10/19 00:02:50;;;;;;;3.70;2.30;;;;;;;8.93;72.74;102782.88;4881738;29;20420;-94
2022/10/19 00:05:16;;;;;;;6.07;1.75;;;;;;;8.79;71.82;102782.91;4881608;29;20031;-95
2022/10/19 00:07:41;;;;;;;5.95;2.47;;;;;;;8.75;71.79;102778.50;4889106;29;20058;-94
2022/10/19 00:10:07;;;;;;;6.97;3.00;;;;;;;8.72;74.29;102780.25;4899475;29;20133;-95
2022/10/19 00:12:32;;;;;;;5.28;3.42;;;;;;;8.80;74.04;102763.56;4881555;29;20036;-95
2022/10/19 00:14:58;;;;;;;6.05;3.10;;;;;;;9.03;74.28;102778.44;4881247;29;20040;-94
2022/10/19 00:17:23;;;;;;;4.07;3.03;;;;;;;9.07;73.97;102773.16;4881345;29;20052;-95
2022/10/19 00:19:49;;;;;;;4.55;3.10;;;;;;;9.04;71.83;102770.53;4882053;29;20020;-94
2022/10/19 00:22:14;;;;;;;4.90;2.80;;;;;;;9.04;71.80;102780.19;4902227;29;20032;-94
2022/10/19 00:24:39;;;;;;;5.90;3.05;;;;;;;9.00;74.00;102782.00;4902257;29;20167;-93
2022/10/19 00:27:05;;;;;;;5.43;3.10;;;;;;;8.94;74.32;102774.06;4887427;29;21243;-95
2022/10/19 00:29:31;;;;;;;5.90;2.53;;;;;;;9.01;73.36;102770.56;4903669;29;20114;-94
2022/10/19 00:31:56;;;;;;;5.50;2.30;;;;;;;9.11;72.55;102769.63;4903412;29;20496;-94
2022/10/19 00:34:21;;;;;;;4.55;2.45;;;;;;;9.13;71.02;102775.78;4909748;29;20062;-94
2022/10/19 00:36:47;;;;;;;2.83;2.35;;;;;;;8.88;71.49;102760.91;4939537;29;20039;-95
2022/10/19 00:39:14;;;;;;;3.65;1.90;;;;;;;8.70;72.16;102751.28;4903400;29;20016;-94
2022/10/19 00:41:41;;;;;;;3.72;2.70;;;;;;;8.64;72.73;102761.84;4903732;29;20030;-94
2022/10/19 00:44:28;;;;;;;7.82;2.90;;;;;;;8.65;72.30;102775.00;4903598;29;20480;-95
2022/10/19 00:47:00;;;;;;;6.22;2.78;;;;;;;8.54;72.63;102763.59;4903266;29;20028;-94
2022/10/19 00:49:34;;;;;;;4.43;3.53;;;;;;;8.55;72.69;102764.47;4903640;29;20476;-94
2022/10/19 00:52:13;;;;;;;4.15;2.67;;;;;;;8.65;73.63;102769.72;4920135;29;20028;-94
2022/10/19 00:54:41;;;;;;;7.50;3.25;;;;;;;8.61;73.49;102756.56;4920530;29;20040;-94
2022/10/19 00:57:07;;;;;;;3.50;3.00;;;;;;;8.78;74.76;102772.38;4903698;29;20526;-94
2022/10/19 00:59:34;;;;;;;3.40;2.72;;;;;;;8.82;72.94;102774.13;4922644;29;20032;-94
2022/10/19 01:02:04;;;;;;;3.28;2.63;;;;;;;8.87;74.11;102777.63;4923569;29;20042;-94
2022/10/19 01:04:32;;;;;;;7.63;3.70;;;;;;;8.81;75.76;102767.97;4903327;29;20031;-95
2022/10/19 01:07:00;;;;;;;8.65;3.50;;;;;;;8.90;75.36;102770.56;4902791;29;20035;-94
2022/10/19 01:09:25;;;;;;;6.00;3.63;;;;;;;8.87;75.58;102762.69;4887596;29;20130;-94
2022/10/19 01:12:12;;;;;;;9.30;4.07;;;;;;;9.02;75.41;102771.44;4905378;29;20164;-94
2022/10/19 01:15:00;;;;;;;9.77;3.67;;;;;;;9.01;75.16;102767.03;4884075;29;20473;-94
2022/10/19 01:18:01;;;;;;;5.00;3.78;;;;;;;9.10;75.00;102774.94;4885489;29;20025;-94
2022/10/19 01:20:32;;;;;;;7.47;4.50;;;;;;;8.98;76.94;102767.03;4900472;29;20441;-94
2022/10/19 01:23:12;;;;;;;10.27;4.90;;;;;;;9.01;76.82;102772.31;4919525;29;20476;-95
2022/10/19 01:25:57;;;;;;;7.53;4.15;;;;;;;8.96;75.58;102758.25;4902598;29;20031;-94
2022/10/19 01:28:33;;;;;;;7.95;4.32;;;;;;;9.03;76.00;102765.25;4902634;29;20032;-95
2022/10/19 01:31:03;;;;;;;6.47;4.20;;;;;;;8.95;76.56;102765.28;4901579;29;20034;-94
2022/10/19 01:33:58;;;;;;;9.32;4.25;;;;;;;8.92;76.34;102753.00;4902280;29;20519;-93
2022/10/19 01:36:38;;;;;;;6.10;3.90;;;;;;;8.83;76.31;102758.28;4893812;29;20043;-94
2022/10/19 01:39:21;;;;;;;6.30;3.70;;;;;;;8.76;74.46;102766.19;4886619;29;20032;-95
2022/10/19 01:42:01;;;;;;;7.95;3.97;;;;;;;8.55;74.79;102752.19;4883547;29;20476;-94
2022/10/19 01:44:37;;;;;;;8.45;4.05;;;;;;;8.48;77.04;102750.41;4883848;29;20029;-95
2022/10/19 01:47:07;;;;;;;14.05;4.93;;;;;;;8.53;77.14;102755.69;4883803;29;20388;-94
2022/10/19 01:49:48;;;;;;;7.72;4.60;;;;;;;8.44;77.54;102738.16;4883261;29;20084;-95
2022/10/19 01:52:17;;;;;;;7.13;4.50;;;;;;;8.47;77.85;102747.78;4900336;29;20035;-94
2022/10/19 01:54:47;;;;;;;5.63;4.10;;;;;;;8.49;78.24;102762.72;4902119;29;20396;-93
2022/10/19 01:57:19;;;;;;;9.15;4.45;;;;;;;8.39;78.26;102761.88;4902234;29;20087;-94
2022/10/19 01:59:47;;;;;;;8.33;5.40;;;;;;;8.32;76.76;102757.44;4919387;29;20059;-94
2022/10/19 02:02:15;;;;;;;6.63;4.43;;;;;;;8.41;78.44;102756.59;4914246;29;20278;-94
2022/10/19 02:04:41;;;;;;;8.02;4.15;;;;;;;8.34;76.11;102746.88;4909097;29;20395;-94
2022/10/19 02:07:09;;;;;;;9.68;4.97;;;;;;;8.31;79.07;102741.63;4901812;29;20097;-95
2022/10/19 02:09:34;;;;;;;6.15;4.45;;;;;;;8.37;78.63;102739.88;4901918;29;20031;-94
2022/10/19 02:12:04;;;;;;;7.32;4.50;;;;;;;8.47;77.80;102738.13;4887156;29;20385;-94
2022/10/19 02:14:33;;;;;;;10.27;4.75;;;;;;;8.42;79.30;102710.88;4883237;29;20035;-94
2022/10/19 02:17:08;;;;;;;8.15;4.28;;;;;;;8.58;78.79;102728.47;4883074;29;20029;-94
2022/10/19 02:19:33;;;;;;;9.05;4.65;;;;;;;8.55;78.61;102720.53;4885550;29;20476;-94
2022/10/19 02:21:59;;;;;;;6.72;4.20;;;;;;;8.67;78.30;102720.53;4918633;29;20028;-94
2022/10/19 02:24:24;;;;;;;9.98;4.85;;;;;;;8.63;78.92;102710.88;4907306;29;20024;-94
2022/10/19 02:26:51;;;;;;;6.97;4.68;;;;;;;8.65;79.64;102711.72;4907064;29;20129;-95
2022/10/19 02:29:16;;;;;;;5.88;4.10;;;;;;;8.65;78.26;102709.09;4902854;29;20388;-94
2022/10/19 02:31:42;;;;;;;7.50;4.63;;;;;;;8.69;79.00;102707.34;4883133;29;20032;-95
2022/10/19 02:34:09;;;;;;;7.57;4.35;;;;;;;8.69;78.86;102700.28;4882839;29;20060;-94
2022/10/19 02:36:34;;;;;;;8.65;4.90;;;;;;;8.72;79.32;102691.50;4882834;29;20036;-95
2022/10/19 02:39:00;;;;;;;6.60;4.93;;;;;;;8.73;79.34;102695.91;4888888;29;20472;-94
2022/10/19 02:41:35;;;;;;;5.15;3.63;;;;;;;8.66;78.63;102688.88;4898295;29;20027;-94
2022/10/19 02:44:25;;;;;;;5.47;3.78;;;;;;;8.53;78.03;102680.09;4900931;29;20551;-94
2022/10/19 02:47:15;;;;;;;17.27;4.35;;;;;;;8.50;77.17;102698.59;4901168;29;20036;-95
2022/10/19 02:49:42;;;;;;;8.15;4.50;;;;;;;8.38;78.09;102678.38;4900497;29;20505;-95
2022/10/19 02:52:11;;;;;;;10.23;4.20;;;;;;;8.34;76.14;102695.03;4897750;29;20027;-94
2022/10/19 02:54:38;;;;;;;7.80;4.50;;;;;;;8.43;79.27;102699.47;4917700;29;20028;-95
2022/10/19 02:57:19;;;;;;;10.48;4.55;;;;;;;8.49;79.55;102688.94;4901119;29;20062;-94
2022/10/19 02:59:45;;;;;;;9.43;4.55;;;;;;;8.62;79.88;102695.91;4901038;29;20035;-94
2022/10/19 03:02:11;;;;;;;9.60;4.93;;;;;;;8.61;79.56;102696.78;4900792;29;20059;-94
2022/10/19 03:04:36;;;;;;;10.48;4.40;;;;;;;8.56;78.30;102687.16;4917769;29;20503;-95
2022/10/19 03:07:02;;;;;;;7.90;4.40;;;;;;;8.55;78.88;102698.56;4917946;29;20028;-94
2022/10/19 03:09:28;;;;;;;11.18;4.45;;;;;;;8.50;78.04;102692.44;4899223;29;20442;-95
2022/10/19 03:11:56;;;;;;;6.72;4.68;;;;;;;8.62;79.12;102698.53;4917649;29;20035;-95
2022/10/19 03:14:21;;;;;;;7.95;5.00;;;;;;;8.64;79.28;102703.84;4918137;29;20028;-94
2022/10/19 03:16:47;;;;;;;15.60;5.63;;;;;;;8.56;78.91;102698.56;4917729;29;20043;-94
2022/10/19 03:19:12;;;;;;;10.57;4.75;;;;;;;8.53;79.23;102690.66;4901738;29;20047;-94
2022/10/19 03:21:37;;;;;;;10.25;4.05;;;;;;;8.60;79.03;102702.94;4900726;29;20407;-94
2022/10/19 03:24:03;;;;;;;7.53;4.80;;;;;;;8.56;78.71;102700.31;4903078;29;20027;-95
2022/10/19 03:26:28;;;;;;;11.55;4.95;;;;;;;8.29;79.14;102678.34;4901168;29;20031;-94
2022/10/19 03:28:54;;;;;;;5.20;3.72;;;;;;;8.28;78.19;102684.53;4900358;29;20067;-95
2022/10/19 03:31:19;;;;;;;8.10;4.15;;;;;;;8.27;79.00;102681.91;4898047;29;20476;-95
2022/10/19 03:33:45;;;;;;;4.85;3.53;;;;;;;8.17;77.28;102670.50;4901187;29;20060;-94
2022/10/19 03:36:22;;;;;;;7.32;4.35;;;;;;;8.17;78.42;102681.03;4900808;29;20036;-94
2022/10/19 03:38:56;;;;;;;6.28;3.40;;;;;;;8.05;76.64;102684.53;4902406;29;20087;-94
2022/10/19 03:41:23;;;;;;;6.50;3.78;;;;;;;7.88;76.80;102683.63;4900986;29;20028;-94
2022/10/19 03:43:49;;;;;;;5.78;3.63;;;;;;;7.83;76.00;102690.66;4885992;29;20028;-95
2022/10/19 03:46:14;;;;;;;6.78;3.95;;;;;;;7.67;76.54;102680.13;4917662;29;20032;-95
2022/10/19 03:48:40;;;;;;;6.40;4.00;;;;;;;7.69;78.57;102682.75;4900343;29;20126;-95
2022/10/19 03:51:07;;;;;;;6.85;3.80;;;;;;;7.61;76.46;102684.50;4900329;29;20028;-95
2022/10/19 03:53:34;;;;;;;7.22;3.95;;;;;;;7.56;78.44;102681.88;4900449;29;20032;-95
2022/10/19 03:56:15;;;;;;;6.82;4.00;;;;;;;7.59;78.31;102702.91;4899665;29;20035;-95
2022/10/19 03:58:44;;;;;;;7.50;4.00;;;;;;;7.36;77.07;102694.06;4900543;29;20063;-95
2022/10/19 04:01:11;;;;;;;7.20;3.88;;;;;;;7.26;79.14;102687.03;4917018;29;20039;-95
2022/10/19 04:03:37;;;;;;;8.07;3.42;;;;;;;7.44;80.23;102691.47;4916993;29;20024;-95
2022/10/19 04:06:08;;;;;;;7.75;3.70;;;;;;;7.62;79.97;102705.56;4900299;29;20028;-94
2022/10/19 04:08:33;;;;;;;6.65;3.80;;;;;;;7.57;78.03;102702.03;4900091;29;20060;-95
2022/10/19 04:11:05;;;;;;;7.25;3.90;;;;;;;7.43;76.93;102687.97;4899975;29;20066;-94
2022/10/19 04:13:31;;;;;;;6.60;3.80;;;;;;;7.40;77.44;102701.09;4900710;29;20484;-95
2022/10/19 04:15:57;;;;;;;8.65;4.18;;;;;;;7.34;77.54;102695.84;4916914;29;20103;-95
2022/10/19 04:18:23;;;;;;;5.60;3.20;;;;;;;7.26;76.40;102694.94;4917013;29;20062;-95
2022/10/19 04:20:53;;;;;;;9.75;3.47;;;;;;;7.16;78.52;102697.53;4899931;29;20024;-94
2022/10/19 04:23:19;;;;;;;9.10;4.78;;;;;;;7.31;81.00;102691.44;4899788;29;20455;-96
2022/10/19 04:25:44;;;;;;;8.93;4.80;;;;;;;7.57;80.89;102691.50;4900112;29;20124;-95
2022/10/19 04:28:09;;;;;;;9.85;4.13;;;;;;;7.60;79.86;102681.00;4899814;29;20057;-94
2022/10/19 04:30:35;;;;;;;7.85;3.35;;;;;;;7.60;78.92;102680.09;4899519;29;20024;-95
2022/10/19 04:33:00;;;;;;;4.75;3.00;;;;;;;7.55;77.32;102692.38;4881881;29;20377;-95
2022/10/19 04:35:25;;;;;;;5.40;3.55;;;;;;;7.50;80.08;102694.13;4880954;29;20056;-95
2022/10/19 04:37:51;;;;;;;7.25;3.67;;;;;;;7.54;80.29;102699.38;4881032;29;20039;-95
2022/10/19 04:40:16;;;;;;;7.10;4.10;;;;;;;7.50;80.78;102683.59;4882552;29;20032;-95
2022/10/19 04:42:41;;;;;;;9.05;4.28;;;;;;;7.62;80.44;102692.41;4899681;29;20024;-95
2022/10/19 04:45:07;;;;;;;7.03;4.07;;;;;;;7.54;80.27;102666.94;4916965;29;20028;-94
2022/10/19 04:47:32;;;;;;;11.32;4.70;;;;;;;7.67;81.08;102679.25;4914682;29;20020;-95
2022/10/19 04:49:58;;;;;;;9.18;4.90;;;;;;;7.71;79.95;102686.28;4910313;29;20038;-94
2022/10/19 04:52:23;;;;;;;7.18;4.10;;;;;;;7.68;80.01;102689.75;4900246;29;20400;-94
2022/10/19 04:54:48;;;;;;;8.65;5.10;;;;;;;7.60;80.36;102688.91;4899746;29;20032;-95
2022/10/19 04:57:14;;;;;;;7.43;4.53;;;;;;;7.59;79.60;102695.00;4900210;29;20075;-95
2022/10/19 04:59:39;;;;;;;9.25;5.97;;;;;;;7.50;80.35;102676.56;4900176;29;20028;-95
2022/10/19 05:02:04;;;;;;;9.70;4.70;;;;;;;7.56;79.98;102702.91;4895684;29;20370;-95
2022/10/19 05:04:30;;;;;;;6.03;4.55;;;;;;;7.43;78.05;102693.25;4898702;29;20437;-95
2022/10/19 05:06:55;;;;;;;6.03;4.18;;;;;;;7.36;78.04;102688.81;4918988;29;20028;-94
2022/10/19 05:09:21;;;;;;;5.57;4.82;;;;;;;7.27;80.05;102668.63;4903032;29;20474;-94
2022/10/19 05:11:49;;;;;;;9.88;5.53;;;;;;;7.33;80.63;102680.94;4903111;29;20025;-95
2022/10/19 05:14:14;;;;;;;10.77;5.05;;;;;;;7.32;80.69;102677.44;4919913;29;20058;-94
2022/10/19 05:16:39;;;;;;;11.52;5.57;;;;;;;7.36;80.36;102686.19;4902877;29;20110;-95
2022/10/19 05:19:05;;;;;;;7.50;5.07;;;;;;;7.31;80.11;102680.91;4902994;29;20032;-95
2022/10/19 05:21:30;;;;;;;10.45;5.60;;;;;;;7.43;80.86;102687.09;4919676;29;20030;-95
2022/10/19 05:23:56;;;;;;;12.65;5.68;;;;;;;7.46;80.94;102682.72;4902821;29;20028;-95
2022/10/19 05:26:24;;;;;;;8.25;5.57;;;;;;;7.41;81.53;102672.19;4919636;29;20079;-95
2022/10/19 05:28:55;;;;;;;15.00;5.93;;;;;;;7.42;80.99;102675.69;4895200;29;20035;-95
2022/10/19 05:31:22;;;;;;;16.80;6.40;;;;;;;7.46;80.86;102684.44;4894059;29;20024;-95
2022/10/19 05:33:48;;;;;;;9.55;6.13;;;;;;;7.46;80.55;102685.34;4902422;29;20056;-94
2022/10/19 05:36:17;;;;;;;11.48;7.03;;;;;;;7.47;81.59;102679.22;4902860;29;20428;-95
2022/10/19 05:38:45;;;;;;;12.18;6.20;;;;;;;7.35;80.50;102664.25;4902534;29;20043;-95
2022/10/19 05:41:11;;;;;;;11.27;6.30;;;;;;;7.45;81.33;102666.91;4902295;29;20020;-95
2022/10/19 05:43:36;;;;;;;8.95;6.22;;;;;;;7.45;81.41;102670.41;4902105;29;20024;-95
2022/10/19 05:46:07;;;;;;;12.65;6.57;;;;;;;7.44;81.54;102663.41;4902388;29;20040;-95
2022/10/19 05:48:33;;;;;;;12.23;7.15;;;;;;;7.40;81.18;102656.38;4915172;29;20024;-95
2022/10/19 05:51:00;;;;;;;8.45;6.30;;;;;;;7.38;80.80;102658.16;4900121;29;20373;-95
2022/10/19 05:53:26;;;;;;;15.95;7.10;;;;;;;7.39;80.98;102662.53;4883217;29;20424;-94
2022/10/19 05:55:51;;;;;;;11.32;6.25;;;;;;;7.40;81.85;102657.25;4883337;29;20040;-94
2022/10/19 05:58:16;;;;;;;11.68;6.53;;;;;;;7.41;81.05;102664.28;4883335;29;20507;-95
2022/10/19 06:00:42;;;;;;;13.23;6.53;;;;;;;7.38;81.13;102671.28;4885982;29;20032;-95
2022/10/19 06:03:07;;;;;;;15.63;6.60;;;;;;;7.29;81.34;102668.63;4886186;29;20020;-95
2022/10/19 06:05:35;;;;;;;11.85;6.00;;;;;;;7.20;81.27;102655.47;4905092;29;20039;-94
2022/10/19 06:08:00;;;;;;;11.82;6.80;;;;;;;7.26;81.80;102655.47;4887636;29;20028;-95
2022/10/19 06:10:26;;;;;;;13.70;7.43;;;;;;;7.32;81.96;102661.66;4886900;29;20025;-95
2022/10/19 06:12:51;;;;;;;12.35;6.72;;;;;;;7.28;81.70;102648.47;4899792;29;20056;-94
2022/10/19 06:15:16;;;;;;;13.13;6.85;;;;;;;7.33;82.24;102658.13;4922889;29;20039;-94
2022/10/19 06:17:42;;;;;;;11.38;6.95;;;;;;;7.35;82.18;102656.38;4906364;29;20056;-96
2022/10/19 06:20:07;;;;;;;12.52;7.50;;;;;;;7.32;81.80;102643.22;4937303;29;20075;-94
2022/10/19 06:22:33;;;;;;;13.98;7.60;;;;;;;7.43;82.72;102652.88;4901720;29;20069;-95
2022/10/19 06:24:58;;;;;;;13.35;7.03;;;;;;;7.44;81.93;102638.84;4903230;29;20123;-94
2022/10/19 06:27:23;;;;;;;12.90;7.20;;;;;;;7.49;82.40;102650.25;4919859;29;20020;-94
2022/10/19 06:29:48;;;;;;;15.75;7.57;;;;;;;7.51;82.15;102648.53;4917104;29;20008;-95
2022/10/19 06:32:14;;;;;;;13.32;7.15;;;;;;;7.53;81.37;102641.50;4892693;29;20025;-94
2022/10/19 06:34:39;;;;;;;10.85;7.15;;;;;;;7.56;82.16;102642.38;4884415;29;20049;-94
2022/10/19 06:37:05;;;;;;;13.98;7.55;;;;;;;7.66;82.08;102659.94;4884769;29;20024;-94
2022/10/19 06:39:30;;;;;;;10.43;6.47;;;;;;;7.65;81.57;102659.94;4911524;29;20020;-94
2022/10/19 06:41:55;;;;;;;15.18;7.38;;;;;;;7.56;81.49;102633.63;4901404;29;20056;-95
2022/10/19 06:44:21;;;;;;;13.35;7.72;;;;;;;7.57;81.24;102648.53;4901289;29;20028;-95
2022/10/19 06:46:46;;;;;;;11.20;7.65;;;;;;;7.59;81.93;102660.78;4901398;29;20035;-95
2022/10/19 06:49:13;;;;;;;11.57;7.22;;;;;;;7.61;81.88;102668.72;4893551;29;20076;-95
2022/10/19 06:51:39;;;;;;;11.90;7.95;;;;;;;7.53;81.68;102660.78;4882163;29;20028;-95
2022/10/19 06:54:05;;;;;;;11.48;7.38;;;;;;;7.54;80.42;102666.94;4882474;29;20391;-94
2022/10/19 06:56:30;;;;;;;14.85;7.55;;;;;;;7.52;80.65;102663.44;4882401;29;20032;-94
2022/10/19 06:58:57;;;;;;;10.40;6.30;;;;;;;7.59;80.70;102675.72;4899133;29;20112;-95
2022/10/19 07:01:23;;;;;;;19.25;7.72;;;;;;;7.52;82.95;102659.03;4882112;29;20484;-95
2022/10/19 07:03:52;;;;;;;15.07;7.40;;;;;;;7.69;82.56;102674.84;4882510;29;20533;-95
2022/10/19 07:06:18;;;;;;;14.38;8.77;;;;;;;7.76;83.37;102662.59;4881815;29;20460;-94
2022/10/19 07:08:44;;;;;;;11.30;7.57;;;;;;;7.82;83.24;102654.69;4902552;29;20379;-94
2022/10/19 07:11:16;;;;;;;14.65;8.00;;;;;;;7.91;82.85;102659.94;4900421;29;20031;-94
2022/10/19 07:13:41;;;;;;;16.13;7.97;;;;;;;7.97;82.81;102656.44;4917869;29;20383;-94
2022/10/19 07:16:12;;;;;;;17.80;8.48;;;;;;;8.08;83.12;102666.09;4900688;29;20028;-94
2022/10/19 07:18:39;;;;;;;12.82;8.32;;;;;;;8.13;83.35;102663.47;4915164;29;20115;-94
2022/10/19 07:21:09;;;;;;;16.50;8.90;;;;;;;8.15;83.38;102667.84;4889515;29;20399;-93
2022/10/19 07:23:37;;;;;;;10.10;7.10;;;;;;;8.28;82.89;102667.84;4917347;29;20036;-95
2022/10/19 07:26:10;;;;;;;20.35;9.10;;;;;;;8.36;83.69;102677.53;4900730;29;20520;-95
2022/10/19 07:28:36;;;;;;;15.18;7.85;;;;;;;8.39;83.46;102659.06;4900926;29;20027;-95
2022/10/19 07:31:07;;;;;;;14.50;7.40;;;;;;;8.56;83.48;102659.03;4918201;29;20034;-96
2022/10/19 07:33:33;;;;;;;18.33;9.30;;;;;;;8.63;83.45;102654.63;4901541;29;20424;-94
2022/10/19 07:36:00;;;;;;;13.50;8.50;;;;;;;8.75;83.27;102666.88;4901691;29;20043;-96
2022/10/19 07:38:26;;;;;;;15.15;8.68;;;;;;;8.74;82.86;102660.72;4902559;29;20024;-95
2022/10/19 07:40:58;;;;;;;15.18;8.43;;;;;;;8.82;83.18;102666.88;4917600;29;20024;-96
2022/10/19 07:43:24;;;;;;;13.73;8.18;;;;;;;8.87;83.34;102665.09;4900675;29;20032;-95
2022/10/19 07:45:49;;;;;;;16.80;8.15;;;;;;;8.91;83.54;102647.50;4917551;29;20028;-96
2022/10/19 07:48:14;;;;;;;12.40;7.88;;;;;;;9.10;83.10;102651.78;4900902;29;20028;-96
2022/10/19 07:50:40;;;;;;;12.30;7.30;;;;;;;9.28;83.18;102661.38;4883008;29;20430;-95
2022/10/19 07:53:05;;;;;;;14.10;8.02;;;;;;;9.52;82.53;102657.72;4882035;29;20115;-96
2022/10/19 07:55:33;;;;;;;14.85;8.70;;;;;;;10.01;81.78;102656.44;4890557;29;20028;-95
2022/10/19 07:58:00;;;;;;;13.68;8.20;;;;;;;10.43;80.32;102637.56;4918457;29;20028;-96
2022/10/19 08:00:26;;;;;;;15.40;8.40;;;;;;;10.93;78.36;102636.09;4900205;29;20075;-95
2022/10/19 08:02:51;;;;;;;11.75;7.97;;;;;;;11.97;76.56;102646.94;4917217;29;20417;-95
2022/10/19 08:05:16;;;;;;;12.90;7.75;;;;;;;12.84;73.71;102647.94;4917425;29;20447;-95
2022/10/19 08:07:42;;;;;;;15.05;7.38;;;;;;;13.37;70.72;102642.41;4900817;29;20031;-95
2022/10/19 08:10:07;;;;;;;11.38;6.55;;;;;;;13.93;68.47;102633.03;4916141;29;20024;-95
2022/10/19 08:12:36;;;;;;;10.40;5.75;;;;;;;14.48;66.63;102634.28;4898090;29;20033;-95
2022/10/19 08:15:01;;;;;;;8.25;5.53;;;;;;;15.08;64.82;102637.88;4881393;29;20498;-95
2022/10/19 08:17:26;;;;;;;7.80;5.05;;;;;;;15.49;62.73;102630.38;4881530;29;20067;-95
2022/10/19 08:19:52;;;;;;;8.55;5.18;;;;;;;16.04;60.66;102649.91;4897911;29;20107;-95
2022/10/19 08:22:17;;;;;;;5.95;4.45;;;;;;;16.64;59.60;102648.66;4897644;29;20489;-95
2022/10/19 08:24:42;;;;;;;10.23;5.03;;;;;;;17.19;57.57;102648.41;4880961;29;20492;-95
2022/10/19 08:27:08;;;;;;;10.00;4.82;;;;;;;17.87;55.61;102639.44;4881032;29;20039;-95
2022/10/19 08:29:33;;;;;;;7.60;4.50;;;;;;;18.79;53.82;102641.66;4890345;29;20040;-95
2022/10/19 08:31:58;;;;;;;7.57;3.97;;;;;;;19.32;52.55;102640.91;4901311;29;20032;-95
2022/10/19 08:34:24;;;;;;;8.63;4.57;;;;;;;20.01;49.85;102613.38;4889486;29;20041;-96
2022/10/19 08:36:49;;;;;;;9.68;3.88;;;;;;;20.52;48.70;102616.09;4900166;29;20076;-95
2022/10/19 08:39:16;;;;;;;6.25;4.13;;;;;;;21.01;47.16;102598.13;4904045;29;20109;-95
2022/10/19 08:41:41;;;;;;;8.43;3.60;;;;;;;21.65;45.22;102617.81;4899170;29;20020;-96
2022/10/19 08:44:43;;;;;;;6.47;3.20;;;;;;;22.01;48.75;102625.53;4901369;29;20553;-96
2022/10/19 08:47:16;;;;;;;5.82;3.00;;;;;;;22.38;43.89;102605.34;4902849;29;20071;-94
2022/10/19 08:49:42;;;;;;;7.53;3.30;;;;;;;22.94;42.12;102596.47;4905852;29;20016;-95
2022/10/19 08:52:32;;;;;;;5.90;3.05;;;;;;;23.57;44.22;102590.50;4889958;29;20121;-96
2022/10/19 08:55:01;;;;;;;9.02;2.90;;;;;;;23.26;41.39;102589.81;4878977;29;20040;-95
2022/10/19 08:57:59;;;;;;;4.70;2.70;;;;;;;24.06;42.77;102596.16;4903944;29;20024;-95
2022/10/19 09:00:48;;;;;;;5.55;2.72;;;;;;;24.33;41.64;102600.56;4870501;29;20036;-96
2022/10/19 09:03:23;;;;;;;7.18;3.00;;;;;;;24.98;38.68;102600.41;4922489;29;20039;-95
2022/10/19 09:06:18;;;;;;;5.18;2.55;;;;;;;25.06;40.24;102597.16;4905863;29;20056;-96
2022/10/19 09:08:44;;;;;;;4.18;2.30;;;;;;;25.35;37.43;102587.75;4906241;29;20035;-95
2022/10/19 09:11:10;;;;;;;4.05;2.33;;;;;;;25.73;35.65;102589.38;4923074;29;20472;-94
2022/10/19 09:13:41;;;;;;;4.95;2.47;;;;;;;26.02;35.85;102591.72;4906834;29;20040;-95
2022/10/19 09:16:15;;;;;;;6.10;2.42;;;;;;;26.40;36.43;102575.16;4906201;29;20114;-95
2022/10/19 09:18:42;;;;;;;6.20;2.03;;;;;;;26.30;34.50;102585.88;4914784;29;20032;-96
2022/10/19 09:21:18;;;;;;;6.93;2.13;;;;;;;26.42;35.71;102592.16;4895156;29;20050;-95
2022/10/19 09:23:51;;;;;;;6.15;2.50;;;;;;;26.04;33.83;102579.78;4904644;29;20059;-95
2022/10/19 09:26:20;;;;;;;5.65;2.10;;;;;;;25.23;35.42;102571.53;4921662;29;20110;-95
2022/10/19 09:29:17;;;;;;;5.03;2.25;;;;;;;24.79;37.33;102595.47;4905523;29;20471;-95
2022/10/19 09:31:43;;;;;;;5.60;2.10;;;;;;;25.11;36.75;102595.88;4899423;29;20051;-95
2022/10/19 09:34:24;;;;;;;3.80;1.88;;;;;;;25.00;38.24;102601.19;4904411;29;20056;-94
2022/10/19 09:36:52;;;;;;;17.80;3.42;;;;;;;24.18;35.68;102586.31;4904594;29;20062;-95
2022/10/19 09:39:18;;;;;;;6.68;2.03;;;;;;;22.96;37.16;102592.72;4899733;29;20032;-96
2022/10/19 09:41:52;;;;;;;4.40;2.08;;;;;;;22.63;40.82;102593.00;4901062;29;20027;-96
2022/10/19 09:44:18;;;;;;;6.35;2.58;;;;;;;22.74;40.08;102579.69;4885774;29;20032;-95
2022/10/19 09:47:05;;;;;;;3.38;2.20;;;;;;;23.58;39.38;102587.69;4902496;29;20031;-95
2022/10/19 09:49:42;;;;;;;6.10;2.15;;;;;;;24.09;38.62;102584.25;4890725;29;20032;-95
2022/10/19 09:52:34;;;;;;;4.05;2.17;;;;;;;23.91;38.45;102568.34;4911382;29;20040;-94
2022/10/19 09:55:19;;;;;;;5.40;2.45;;;;;;;24.27;38.44;102577.56;4921939;29;20111;-95
2022/10/19 09:57:57;;;;;;;7.57;2.60;;;;;;;24.69;36.79;102580.91;4915312;29;20035;-95
2022/10/19 10:00:29;;;;;;;5.15;2.30;;;;;;;24.63;35.58;102578.66;4935742;29;20028;-94
2022/10/19 10:02:55;;;;;;;6.38;2.30;;;;;;;25.91;35.44;102570.88;4923143;29;20372;-94
2022/10/19 10:05:38;;;;;;;6.10;2.03;;;;;;;25.58;35.57;102560.78;4940051;29;20038;-96
2022/10/19 10:08:13;;;;;;;5.03;1.83;;;;;;;25.52;36.06;102555.84;4940343;29;20035;-95
2022/10/19 10:10:43;;;;;;;6.82;2.50;;;;;;;25.11;35.70;102547.13;4908220;29;20029;-95
2022/10/19 10:13:16;;;;;;;8.20;2.10;;;;;;;25.37;35.87;102550.59;4919518;29;20559;-95
2022/10/19 10:15:46;;;;;;;5.60;1.73;;;;;;;25.84;33.09;102554.25;4931475;29;20032;-95
2022/10/19 10:18:14;;;;;;;9.27;2.30;;;;;;;25.55;33.96;102534.78;4913927;29;20087;-94
2022/10/19 10:20:57;;;;;;;6.03;2.20;;;;;;;25.77;35.01;102525.88;4889712;29;20017;-96
2022/10/19 10:23:25;;;;;;;10.00;2.13;;;;;;;25.94;33.52;102548.97;4917581;29;20032;-95
2022/10/19 10:25:55;;;;;;;3.30;1.58;;;;;;;25.97;33.46;102546.00;4903730;29;20460;-95
2022/10/19 10:28:23;;;;;;;5.90;2.00;;;;;;;25.08;33.63;102555.47;4903534;29;20499;-95
2022/10/19 10:30:57;;;;;;;8.82;2.38;;;;;;;24.74;35.67;102543.56;4897380;29;20020;-95
2022/10/19 10:33:25;;;;;;;5.95;2.05;;;;;;;24.79;36.03;102557.59;4885115;29;20035;-95
2022/10/19 10:35:56;;;;;;;8.50;2.47;;;;;;;25.49;35.31;102543.38;4903700;29;20028;-95
2022/10/19 10:38:29;;;;;;;6.80;2.58;;;;;;;25.97;33.58;102537.84;4904187;29;20440;-94
2022/10/19 10:41:16;;;;;;;5.28;2.03;;;;;;;26.88;34.04;102536.91;4900801;29;20036;-95
2022/10/19 10:43:58;;;;;;;6.43;2.35;;;;;;;26.56;33.23;102528.69;4883591;29;20485;-95
2022/10/19 10:46:27;;;;;;;10.48;2.15;;;;;;;26.77;31.53;102532.38;4902315;29;20036;-95
2022/10/19 10:48:57;;;;;;;8.85;2.40;;;;;;;27.65;31.16;102521.31;4901597;29;20029;-95
2022/10/19 10:51:33;;;;;;;5.18;2.08;;;;;;;28.11;31.15;102532.78;4896497;29;20028;-95
2022/10/19 10:54:16;;;;;;;5.53;1.90;;;;;;;28.84;30.82;102531.66;4920774;29;20277;-95
2022/10/19 10:56:43;;;;;;;9.00;2.42;;;;;;;28.27;30.34;102515.97;4904249;29;20368;-94
2022/10/19 10:59:18;;;;;;;7.43;2.65;;;;;;;28.16;29.33;102530.50;4920396;29;20095;-95
2022/10/19 11:02:00;;;;;;;5.32;2.58;;;;;;;27.15;31.49;102518.34;4887154;29;20032;-95
2022/10/19 11:04:31;;;;;;;7.20;2.70;;;;;;;26.85;31.76;102508.16;4916553;29;20424;-94
2022/10/19 11:07:03;;;;;;;7.38;2.67;;;;;;;27.35;31.42;102508.50;4902434;29;20027;-96
2022/10/19 11:09:43;;;;;;;5.05;2.30;;;;;;;26.76;32.47;102503.47;4903231;29;20550;-95
2022/10/19 11:12:14;;;;;;;9.18;2.65;;;;;;;26.25;31.62;102490.44;4886443;29;20028;-95
2022/10/19 11:14:48;;;;;;;5.28;2.53;;;;;;;26.99;31.82;102495.28;4885170;29;20381;-95
2022/10/19 11:17:26;;;;;;;7.93;2.75;;;;;;;27.80;31.64;102491.97;4885083;29;20119;-95
2022/10/19 11:19:52;;;;;;;6.50;2.65;;;;;;;28.26;29.58;102493.34;4884254;29;20075;-95
2022/10/19 11:22:43;;;;;;;8.88;2.78;;;;;;;28.61;30.78;102497.50;4901181;29;20028;-95
2022/10/19 11:25:24;;;;;;;6.10;2.50;;;;;;;27.99;29.94;102495.81;4919259;29;20020;-95
2022/10/19 11:27:49;;;;;;;5.28;2.63;;;;;;;26.77;30.19;102478.09;4907338;29;20036;-95
2022/10/19 11:30:19;;;;;;;5.83;2.30;;;;;;;26.46;32.32;102474.31;4918372;29;20088;-95
2022/10/19 11:33:27;;;;;;;7.82;3.10;;;;;;;26.56;32.36;102479.84;4918609;29;20284;-95
2022/10/19 11:35:58;;;;;;;5.88;2.50;;;;;;;26.77;30.70;102460.94;4824880;29;20053;-94
2022/10/19 11:38:38;;;;;;;6.95;2.85;;;;;;;26.95;32.63;102465.69;4809775;29;20037;-95
2022/10/19 11:41:17;;;;;;;10.43;2.90;;;;;;;26.94;31.41;102455.81;4883310;29;20508;-95